Schedule Details


Flight Number: CTN4467
Departure: Zurich (LSZH) at 10:05
Arrival: Cilipi (LDDU) at 12:00
Route: DEGES?N871?MADEB?N606?ELMEM?L607?GEDSO?DCT?TUTIV?DCT?GEMKA?L607?NERRA

Weather Information
LSZH 191120Z 25011KT 9999 VCSH FEW010 BKN022 04/02 Q1024 NOSIG
LDDU 191130Z 18010KT 150V230 9999 FEW018 SCT043 13/08 Q1018 NOSIG
Schedule Frequency

Route Map